sensor_id;sensor_type;location;lat;lon;timestamp;P1;durP1;ratioP1;P2;durP2;ratioP2
49502;SDS011;35409;48.776;9.204;2023-04-25T00:00:25;2.08;;;1.35;;
49502;SDS011;35409;48.776;9.204;2023-04-25T00:02:50;2.90;;;1.40;;
49502;SDS011;35409;48.776;9.204;2023-04-25T00:05:16;2.88;;;1.33;;
49502;SDS011;35409;48.776;9.204;2023-04-25T00:07:42;2.10;;;1.50;;
49502;SDS011;35409;48.776;9.204;2023-04-25T00:10:08;2.63;;;1.60;;
49502;SDS011;35409;48.776;9.204;2023-04-25T00:12:36;1.58;;;1.45;;
49502;SDS011;35409;48.776;9.204;2023-04-25T00:15:02;1.42;;;1.30;;
49502;SDS011;35409;48.776;9.204;2023-04-25T00:17:28;4.00;;;1.45;;
49502;SDS011;35409;48.776;9.204;2023-04-25T00:19:54;4.03;;;1.25;;
49502;SDS011;35409;48.776;9.204;2023-04-25T00:22:20;3.40;;;1.50;;
49502;SDS011;35409;48.776;9.204;2023-04-25T00:24:46;1.73;;;0.98;;
49502;SDS011;35409;48.776;9.204;2023-04-25T00:27:12;3.35;;;1.45;;
49502;SDS011;35409;48.776;9.204;2023-04-25T00:29:37;2.92;;;1.23;;
49502;SDS011;35409;48.776;9.204;2023-04-25T00:32:03;3.92;;;1.88;;
49502;SDS011;35409;48.776;9.204;2023-04-25T00:34:29;2.47;;;1.58;;
49502;SDS011;35409;48.776;9.204;2023-04-25T00:36:54;2.70;;;1.55;;
49502;SDS011;35409;48.776;9.204;2023-04-25T00:39:20;3.53;;;1.33;;
49502;SDS011;35409;48.776;9.204;2023-04-25T00:41:46;1.95;;;1.33;;
49502;SDS011;35409;48.776;9.204;2023-04-25T00:44:12;1.92;;;1.20;;
49502;SDS011;35409;48.776;9.204;2023-04-25T00:46:41;3.75;;;1.48;;
49502;SDS011;35409;48.776;9.204;2023-04-25T00:49:07;2.35;;;1.58;;
49502;SDS011;35409;48.776;9.204;2023-04-25T00:51:33;1.98;;;1.30;;
49502;SDS011;35409;48.776;9.204;2023-04-25T00:53:59;1.52;;;1.40;;
49502;SDS011;35409;48.776;9.204;2023-04-25T00:56:25;3.08;;;1.30;;
49502;SDS011;35409;48.776;9.204;2023-04-25T00:58:52;1.77;;;1.27;;
49502;SDS011;35409;48.776;9.204;2023-04-25T01:01:20;1.47;;;1.30;;
49502;SDS011;35409;48.776;9.204;2023-04-25T01:03:46;1.70;;;1.55;;
49502;SDS011;35409;48.776;9.204;2023-04-25T01:06:12;2.97;;;1.70;;
49502;SDS011;35409;48.776;9.204;2023-04-25T01:08:38;1.98;;;1.38;;
49502;SDS011;35409;48.776;9.204;2023-04-25T01:11:04;2.50;;;1.40;;
49502;SDS011;35409;48.776;9.204;2023-04-25T01:13:30;1.63;;;1.25;;
49502;SDS011;35409;48.776;9.204;2023-04-25T01:15:57;2.28;;;1.40;;
49502;SDS011;35409;48.776;9.204;2023-04-25T01:18:23;3.67;;;1.70;;
49502;SDS011;35409;48.776;9.204;2023-04-25T01:20:50;3.92;;;1.80;;
49502;SDS011;35409;48.776;9.204;2023-04-25T01:23:17;3.58;;;1.88;;
49502;SDS011;35409;48.776;9.204;2023-04-25T01:25:44;3.17;;;1.73;;
49502;SDS011;35409;48.776;9.204;2023-04-25T01:28:10;2.35;;;1.95;;
49502;SDS011;35409;48.776;9.204;2023-04-25T01:30:36;2.92;;;1.50;;
49502;SDS011;35409;48.776;9.204;2023-04-25T01:33:03;4.63;;;1.90;;
49502;SDS011;35409;48.776;9.204;2023-04-25T01:35:31;3.83;;;1.80;;
49502;SDS011;35409;48.776;9.204;2023-04-25T01:37:57;1.67;;;1.58;;
49502;SDS011;35409;48.776;9.204;2023-04-25T01:40:23;3.13;;;2.22;;
49502;SDS011;35409;48.776;9.204;2023-04-25T01:42:49;6.45;;;2.00;;
49502;SDS011;35409;48.776;9.204;2023-04-25T01:45:16;5.13;;;1.77;;
49502;SDS011;35409;48.776;9.204;2023-04-25T01:47:42;3.03;;;1.70;;
49502;SDS011;35409;48.776;9.204;2023-04-25T01:50:11;5.27;;;1.63;;
49502;SDS011;35409;48.776;9.204;2023-04-25T01:52:37;4.50;;;1.95;;
49502;SDS011;35409;48.776;9.204;2023-04-25T01:55:03;3.15;;;2.10;;
49502;SDS011;35409;48.776;9.204;2023-04-25T01:57:29;4.80;;;2.10;;
49502;SDS011;35409;48.776;9.204;2023-04-25T01:59:57;2.47;;;2.20;;
49502;SDS011;35409;48.776;9.204;2023-04-25T02:02:24;4.00;;;2.20;;
49502;SDS011;35409;48.776;9.204;2023-04-25T02:04:51;3.85;;;1.88;;
49502;SDS011;35409;48.776;9.204;2023-04-25T02:07:16;2.90;;;1.85;;
49502;SDS011;35409;48.776;9.204;2023-04-25T02:09:42;2.05;;;1.90;;
49502;SDS011;35409;48.776;9.204;2023-04-25T02:12:09;2.17;;;1.70;;
49502;SDS011;35409;48.776;9.204;2023-04-25T02:14:35;2.80;;;1.70;;
49502;SDS011;35409;48.776;9.204;2023-04-25T02:17:00;5.32;;;2.03;;
49502;SDS011;35409;48.776;9.204;2023-04-25T02:19:26;3.05;;;2.20;;
49502;SDS011;35409;48.776;9.204;2023-04-25T02:21:52;2.55;;;2.13;;
49502;SDS011;35409;48.776;9.204;2023-04-25T02:24:17;4.90;;;2.03;;
49502;SDS011;35409;48.776;9.204;2023-04-25T02:26:43;4.95;;;2.00;;
49502;SDS011;35409;48.776;9.204;2023-04-25T02:29:09;3.72;;;1.85;;
49502;SDS011;35409;48.776;9.204;2023-04-25T02:31:35;2.80;;;2.13;;
49502;SDS011;35409;48.776;9.204;2023-04-25T02:34:00;4.18;;;1.73;;
49502;SDS011;35409;48.776;9.204;2023-04-25T02:36:26;3.17;;;1.85;;
49502;SDS011;35409;48.776;9.204;2023-04-25T02:38:52;2.17;;;1.98;;
49502;SDS011;35409;48.776;9.204;2023-04-25T02:41:18;3.17;;;1.90;;
49502;SDS011;35409;48.776;9.204;2023-04-25T02:43:43;4.05;;;1.50;;
49502;SDS011;35409;48.776;9.204;2023-04-25T02:46:09;3.05;;;1.83;;
49502;SDS011;35409;48.776;9.204;2023-04-25T02:48:35;3.65;;;1.52;;
49502;SDS011;35409;48.776;9.204;2023-04-25T02:51:00;2.42;;;1.48;;
49502;SDS011;35409;48.776;9.204;2023-04-25T02:53:26;1.67;;;1.58;;
49502;SDS011;35409;48.776;9.204;2023-04-25T02:55:51;4.55;;;1.80;;
49502;SDS011;35409;48.776;9.204;2023-04-25T02:58:17;1.98;;;1.52;;
49502;SDS011;35409;48.776;9.204;2023-04-25T03:00:43;3.65;;;1.90;;
49502;SDS011;35409;48.776;9.204;2023-04-25T03:03:09;6.25;;;1.55;;
49502;SDS011;35409;48.776;9.204;2023-04-25T03:05:34;1.85;;;1.63;;
49502;SDS011;35409;48.776;9.204;2023-04-25T03:08:00;2.65;;;1.30;;
49502;SDS011;35409;48.776;9.204;2023-04-25T03:10:25;3.25;;;1.77;;
49502;SDS011;35409;48.776;9.204;2023-04-25T03:12:51;3.17;;;1.50;;
49502;SDS011;35409;48.776;9.204;2023-04-25T03:15:17;3.45;;;1.85;;
49502;SDS011;35409;48.776;9.204;2023-04-25T03:17:43;3.80;;;1.63;;
49502;SDS011;35409;48.776;9.204;2023-04-25T03:20:09;2.70;;;1.63;;
49502;SDS011;35409;48.776;9.204;2023-04-25T03:22:35;3.90;;;1.70;;
49502;SDS011;35409;48.776;9.204;2023-04-25T03:25:01;5.32;;;1.85;;
49502;SDS011;35409;48.776;9.204;2023-04-25T03:27:27;3.17;;;1.83;;
49502;SDS011;35409;48.776;9.204;2023-04-25T03:29:53;3.38;;;1.80;;
49502;SDS011;35409;48.776;9.204;2023-04-25T03:32:18;1.95;;;1.70;;
49502;SDS011;35409;48.776;9.204;2023-04-25T03:34:44;4.70;;;1.77;;
49502;SDS011;35409;48.776;9.204;2023-04-25T03:37:10;2.95;;;1.73;;
49502;SDS011;35409;48.776;9.204;2023-04-25T03:39:35;3.55;;;2.25;;
49502;SDS011;35409;48.776;9.204;2023-04-25T03:42:02;2.10;;;1.70;;
49502;SDS011;35409;48.776;9.204;2023-04-25T03:44:28;2.22;;;1.52;;
49502;SDS011;35409;48.776;9.204;2023-04-25T03:46:53;3.92;;;1.85;;
49502;SDS011;35409;48.776;9.204;2023-04-25T03:49:19;3.88;;;1.90;;
49502;SDS011;35409;48.776;9.204;2023-04-25T03:51:44;4.38;;;1.88;;
49502;SDS011;35409;48.776;9.204;2023-04-25T03:54:10;2.72;;;2.00;;
49502;SDS011;35409;48.776;9.204;2023-04-25T03:56:35;1.90;;;1.55;;
49502;SDS011;35409;48.776;9.204;2023-04-25T03:59:01;2.80;;;1.77;;
49502;SDS011;35409;48.776;9.204;2023-04-25T04:01:27;2.65;;;1.95;;
49502;SDS011;35409;48.776;9.204;2023-04-25T04:03:52;5.63;;;1.90;;
49502;SDS011;35409;48.776;9.204;2023-04-25T04:06:18;2.60;;;1.40;;
49502;SDS011;35409;48.776;9.204;2023-04-25T04:08:45;3.03;;;2.00;;
49502;SDS011;35409;48.776;9.204;2023-04-25T04:11:11;2.88;;;2.03;;
49502;SDS011;35409;48.776;9.204;2023-04-25T04:13:37;2.95;;;2.00;;
49502;SDS011;35409;48.776;9.204;2023-04-25T04:16:02;4.80;;;2.33;;
49502;SDS011;35409;48.776;9.204;2023-04-25T04:18:29;3.20;;;2.20;;
49502;SDS011;35409;48.776;9.204;2023-04-25T04:20:55;2.50;;;1.67;;
49502;SDS011;35409;48.776;9.204;2023-04-25T04:23:22;3.38;;;1.98;;
49502;SDS011;35409;48.776;9.204;2023-04-25T04:25:48;3.55;;;2.20;;
49502;SDS011;35409;48.776;9.204;2023-04-25T04:28:14;3.58;;;2.30;;
49502;SDS011;35409;48.776;9.204;2023-04-25T04:30:41;4.25;;;2.40;;
49502;SDS011;35409;48.776;9.204;2023-04-25T04:33:07;5.03;;;2.53;;
49502;SDS011;35409;48.776;9.204;2023-04-25T04:35:34;4.22;;;2.25;;
49502;SDS011;35409;48.776;9.204;2023-04-25T04:37:59;6.75;;;2.20;;
49502;SDS011;35409;48.776;9.204;2023-04-25T04:40:25;3.65;;;2.40;;
49502;SDS011;35409;48.776;9.204;2023-04-25T04:42:51;4.15;;;2.55;;
49502;SDS011;35409;48.776;9.204;2023-04-25T04:45:18;5.53;;;2.38;;
49502;SDS011;35409;48.776;9.204;2023-04-25T04:47:43;3.25;;;2.40;;
49502;SDS011;35409;48.776;9.204;2023-04-25T04:50:10;2.38;;;2.08;;
49502;SDS011;35409;48.776;9.204;2023-04-25T04:52:36;2.55;;;1.90;;
49502;SDS011;35409;48.776;9.204;2023-04-25T04:55:02;3.92;;;2.40;;
49502;SDS011;35409;48.776;9.204;2023-04-25T04:57:30;5.43;;;2.60;;
49502;SDS011;35409;48.776;9.204;2023-04-25T04:59:57;4.20;;;2.10;;
49502;SDS011;35409;48.776;9.204;2023-04-25T05:02:23;4.70;;;2.08;;
49502;SDS011;35409;48.776;9.204;2023-04-25T05:04:49;8.23;;;2.50;;
49502;SDS011;35409;48.776;9.204;2023-04-25T05:07:16;3.75;;;2.60;;
49502;SDS011;35409;48.776;9.204;2023-04-25T05:09:42;5.43;;;2.45;;
49502;SDS011;35409;48.776;9.204;2023-04-25T05:12:07;4.88;;;2.22;;
49502;SDS011;35409;48.776;9.204;2023-04-25T05:14:33;2.60;;;2.05;;
49502;SDS011;35409;48.776;9.204;2023-04-25T05:16:58;5.00;;;2.40;;
49502;SDS011;35409;48.776;9.204;2023-04-25T05:19:24;7.25;;;2.58;;
49502;SDS011;35409;48.776;9.204;2023-04-25T05:21:50;7.53;;;2.67;;
49502;SDS011;35409;48.776;9.204;2023-04-25T05:24:15;4.35;;;2.10;;
49502;SDS011;35409;48.776;9.204;2023-04-25T05:26:41;2.58;;;2.20;;
49502;SDS011;35409;48.776;9.204;2023-04-25T05:29:07;4.30;;;2.25;;
49502;SDS011;35409;48.776;9.204;2023-04-25T05:31:32;3.22;;;2.50;;
49502;SDS011;35409;48.776;9.204;2023-04-25T05:33:58;4.13;;;2.65;;
49502;SDS011;35409;48.776;9.204;2023-04-25T05:36:23;3.42;;;2.30;;
49502;SDS011;35409;48.776;9.204;2023-04-25T05:38:49;5.38;;;2.70;;
49502;SDS011;35409;48.776;9.204;2023-04-25T05:41:15;4.40;;;2.85;;
49502;SDS011;35409;48.776;9.204;2023-04-25T05:43:40;3.30;;;2.25;;
49502;SDS011;35409;48.776;9.204;2023-04-25T05:46:12;3.42;;;2.40;;
49502;SDS011;35409;48.776;9.204;2023-04-25T05:48:38;3.20;;;2.60;;
49502;SDS011;35409;48.776;9.204;2023-04-25T05:51:04;3.60;;;2.40;;
49502;SDS011;35409;48.776;9.204;2023-04-25T05:53:30;3.45;;;2.53;;
49502;SDS011;35409;48.776;9.204;2023-04-25T05:55:56;3.35;;;2.17;;
49502;SDS011;35409;48.776;9.204;2023-04-25T05:58:21;3.05;;;2.38;;
49502;SDS011;35409;48.776;9.204;2023-04-25T06:00:47;2.72;;;2.20;;
49502;SDS011;35409;48.776;9.204;2023-04-25T06:03:12;4.82;;;2.30;;
49502;SDS011;35409;48.776;9.204;2023-04-25T06:05:41;2.58;;;2.17;;
49502;SDS011;35409;48.776;9.204;2023-04-25T06:08:07;2.40;;;2.20;;
49502;SDS011;35409;48.776;9.204;2023-04-25T06:10:33;2.80;;;2.38;;
49502;SDS011;35409;48.776;9.204;2023-04-25T06:12:58;3.65;;;2.08;;
49502;SDS011;35409;48.776;9.204;2023-04-25T06:15:24;3.35;;;1.67;;
49502;SDS011;35409;48.776;9.204;2023-04-25T06:17:50;3.17;;;1.85;;
49502;SDS011;35409;48.776;9.204;2023-04-25T06:20:15;2.58;;;1.90;;
49502;SDS011;35409;48.776;9.204;2023-04-25T06:22:41;7.88;;;2.70;;
49502;SDS011;35409;48.776;9.204;2023-04-25T06:25:07;3.92;;;2.00;;
49502;SDS011;35409;48.776;9.204;2023-04-25T06:27:35;3.13;;;1.90;;
49502;SDS011;35409;48.776;9.204;2023-04-25T06:30:01;3.47;;;1.95;;
49502;SDS011;35409;48.776;9.204;2023-04-25T06:32:26;2.55;;;2.17;;
49502;SDS011;35409;48.776;9.204;2023-04-25T06:34:53;3.50;;;2.08;;
49502;SDS011;35409;48.776;9.204;2023-04-25T06:37:19;13.25;;;3.03;;
49502;SDS011;35409;48.776;9.204;2023-04-25T06:39:45;3.05;;;2.05;;
49502;SDS011;35409;48.776;9.204;2023-04-25T06:42:10;4.30;;;2.20;;
49502;SDS011;35409;48.776;9.204;2023-04-25T06:44:36;4.40;;;1.95;;
49502;SDS011;35409;48.776;9.204;2023-04-25T06:47:01;5.22;;;2.38;;
49502;SDS011;35409;48.776;9.204;2023-04-25T06:49:27;3.92;;;2.22;;
49502;SDS011;35409;48.776;9.204;2023-04-25T06:51:52;3.72;;;2.25;;
49502;SDS011;35409;48.776;9.204;2023-04-25T06:54:18;3.53;;;2.28;;
49502;SDS011;35409;48.776;9.204;2023-04-25T06:56:44;3.85;;;2.40;;
49502;SDS011;35409;48.776;9.204;2023-04-25T06:59:09;4.47;;;2.40;;
49502;SDS011;35409;48.776;9.204;2023-04-25T07:01:35;5.38;;;2.33;;
49502;SDS011;35409;48.776;9.204;2023-04-25T07:04:00;2.63;;;2.25;;
49502;SDS011;35409;48.776;9.204;2023-04-25T07:06:26;3.50;;;2.28;;
49502;SDS011;35409;48.776;9.204;2023-04-25T07:08:52;2.08;;;1.88;;
49502;SDS011;35409;48.776;9.204;2023-04-25T07:11:18;3.75;;;2.33;;
49502;SDS011;35409;48.776;9.204;2023-04-25T07:13:44;2.25;;;2.05;;
49502;SDS011;35409;48.776;9.204;2023-04-25T07:16:10;2.67;;;2.20;;
49502;SDS011;35409;48.776;9.204;2023-04-25T07:18:35;2.45;;;2.20;;
49502;SDS011;35409;48.776;9.204;2023-04-25T07:21:01;2.90;;;2.50;;
49502;SDS011;35409;48.776;9.204;2023-04-25T07:23:27;4.25;;;3.00;;
49502;SDS011;35409;48.776;9.204;2023-04-25T07:25:52;4.45;;;2.88;;
49502;SDS011;35409;48.776;9.204;2023-04-25T07:28:18;5.40;;;3.88;;
49502;SDS011;35409;48.776;9.204;2023-04-25T07:30:43;4.53;;;3.25;;
49502;SDS011;35409;48.776;9.204;2023-04-25T07:33:09;4.78;;;3.13;;
49502;SDS011;35409;48.776;9.204;2023-04-25T07:35:35;3.33;;;3.03;;
49502;SDS011;35409;48.776;9.204;2023-04-25T07:38:01;5.22;;;3.10;;
49502;SDS011;35409;48.776;9.204;2023-04-25T07:40:27;5.00;;;3.60;;
49502;SDS011;35409;48.776;9.204;2023-04-25T07:42:53;6.18;;;3.50;;
49502;SDS011;35409;48.776;9.204;2023-04-25T07:45:18;4.97;;;3.60;;
49502;SDS011;35409;48.776;9.204;2023-04-25T07:47:44;5.47;;;3.83;;
49502;SDS011;35409;48.776;9.204;2023-04-25T07:50:10;4.85;;;3.40;;
49502;SDS011;35409;48.776;9.204;2023-04-25T07:52:36;5.45;;;3.60;;
49502;SDS011;35409;48.776;9.204;2023-04-25T07:55:02;6.28;;;4.28;;
49502;SDS011;35409;48.776;9.204;2023-04-25T07:57:28;6.55;;;4.80;;
49502;SDS011;35409;48.776;9.204;2023-04-25T07:59:54;5.03;;;3.60;;
49502;SDS011;35409;48.776;9.204;2023-04-25T08:02:19;5.10;;;4.60;;
49502;SDS011;35409;48.776;9.204;2023-04-25T08:04:45;5.13;;;3.95;;
49502;SDS011;35409;48.776;9.204;2023-04-25T08:07:11;5.55;;;3.97;;
49502;SDS011;35409;48.776;9.204;2023-04-25T08:09:37;6.22;;;4.47;;
49502;SDS011;35409;48.776;9.204;2023-04-25T08:12:03;7.55;;;5.00;;
49502;SDS011;35409;48.776;9.204;2023-04-25T08:14:29;8.45;;;5.30;;
49502;SDS011;35409;48.776;9.204;2023-04-25T08:17:00;6.60;;;4.72;;
49502;SDS011;35409;48.776;9.204;2023-04-25T08:19:28;6.45;;;5.03;;
49502;SDS011;35409;48.776;9.204;2023-04-25T08:21:54;6.07;;;4.43;;
49502;SDS011;35409;48.776;9.204;2023-04-25T08:24:21;8.90;;;4.63;;
49502;SDS011;35409;48.776;9.204;2023-04-25T08:26:47;6.25;;;4.75;;
49502;SDS011;35409;48.776;9.204;2023-04-25T08:29:12;7.78;;;4.65;;
49502;SDS011;35409;48.776;9.204;2023-04-25T08:31:38;8.52;;;4.90;;
49502;SDS011;35409;48.776;9.204;2023-04-25T08:34:04;6.00;;;5.35;;
49502;SDS011;35409;48.776;9.204;2023-04-25T08:36:29;6.22;;;4.88;;
49502;SDS011;35409;48.776;9.204;2023-04-25T08:38:56;5.68;;;4.93;;
49502;SDS011;35409;48.776;9.204;2023-04-25T08:41:22;8.13;;;5.15;;
49502;SDS011;35409;48.776;9.204;2023-04-25T08:43:48;8.93;;;4.82;;
49502;SDS011;35409;48.776;9.204;2023-04-25T08:46:17;6.15;;;4.80;;
49502;SDS011;35409;48.776;9.204;2023-04-25T08:48:44;6.70;;;4.97;;
49502;SDS011;35409;48.776;9.204;2023-04-25T08:51:10;6.72;;;5.20;;
49502;SDS011;35409;48.776;9.204;2023-04-25T08:53:43;7.70;;;5.50;;
49502;SDS011;35409;48.776;9.204;2023-04-25T08:56:11;7.30;;;5.15;;
49502;SDS011;35409;48.776;9.204;2023-04-25T08:58:41;7.43;;;5.35;;
49502;SDS011;35409;48.776;9.204;2023-04-25T09:01:07;9.95;;;4.97;;
49502;SDS011;35409;48.776;9.204;2023-04-25T09:03:33;6.63;;;5.05;;
49502;SDS011;35409;48.776;9.204;2023-04-25T09:06:00;8.43;;;4.95;;
49502;SDS011;35409;48.776;9.204;2023-04-25T09:08:26;6.65;;;5.28;;
49502;SDS011;35409;48.776;9.204;2023-04-25T09:10:51;6.93;;;5.47;;
49502;SDS011;35409;48.776;9.204;2023-04-25T09:13:23;8.63;;;5.68;;
49502;SDS011;35409;48.776;9.204;2023-04-25T09:15:52;8.65;;;5.40;;
49502;SDS011;35409;48.776;9.204;2023-04-25T09:20:54;8.27;;;5.28;;
49502;SDS011;35409;48.776;9.204;2023-04-25T09:23:22;9.05;;;5.50;;
49502;SDS011;35409;48.776;9.204;2023-04-25T09:25:49;6.28;;;5.00;;
49502;SDS011;35409;48.776;9.204;2023-04-25T09:28:16;9.48;;;5.15;;
49502;SDS011;35409;48.776;9.204;2023-04-25T09:30:47;8.45;;;5.20;;
49502;SDS011;35409;48.776;9.204;2023-04-25T09:33:13;9.18;;;6.00;;
49502;SDS011;35409;48.776;9.204;2023-04-25T09:35:39;8.30;;;5.18;;
49502;SDS011;35409;48.776;9.204;2023-04-25T09:38:14;6.07;;;4.90;;
49502;SDS011;35409;48.776;9.204;2023-04-25T09:40:43;6.60;;;5.55;;
49502;SDS011;35409;48.776;9.204;2023-04-25T09:45:46;7.72;;;5.68;;
49502;SDS011;35409;48.776;9.204;2023-04-25T09:48:16;8.32;;;6.10;;
49502;SDS011;35409;48.776;9.204;2023-04-25T09:50:43;7.57;;;5.90;;
49502;SDS011;35409;48.776;9.204;2023-04-25T09:53:08;7.68;;;6.10;;
49502;SDS011;35409;48.776;9.204;2023-04-25T09:55:35;8.10;;;5.88;;
49502;SDS011;35409;48.776;9.204;2023-04-25T09:58:03;7.63;;;6.03;;
49502;SDS011;35409;48.776;9.204;2023-04-25T10:00:33;9.75;;;6.18;;
49502;SDS011;35409;48.776;9.204;2023-04-25T10:03:00;7.43;;;5.55;;
49502;SDS011;35409;48.776;9.204;2023-04-25T10:05:32;6.53;;;5.20;;
49502;SDS011;35409;48.776;9.204;2023-04-25T10:08:01;8.23;;;5.30;;
49502;SDS011;35409;48.776;9.204;2023-04-25T10:10:29;5.18;;;3.58;;
49502;SDS011;35409;48.776;9.204;2023-04-25T10:12:57;2.40;;;2.20;;
49502;SDS011;35409;48.776;9.204;2023-04-25T10:15:23;2.90;;;2.30;;
49502;SDS011;35409;48.776;9.204;2023-04-25T10:17:50;2.22;;;1.70;;
49502;SDS011;35409;48.776;9.204;2023-04-25T10:20:16;2.08;;;0.63;;
49502;SDS011;35409;48.776;9.204;2023-04-25T10:22:42;0.77;;;0.77;;
49502;SDS011;35409;48.776;9.204;2023-04-25T10:25:10;3.13;;;0.80;;
49502;SDS011;35409;48.776;9.204;2023-04-25T10:27:36;2.67;;;1.20;;
49502;SDS011;35409;48.776;9.204;2023-04-25T10:30:03;1.58;;;1.48;;
49502;SDS011;35409;48.776;9.204;2023-04-25T10:32:31;2.38;;;2.17;;
49502;SDS011;35409;48.776;9.204;2023-04-25T10:35:16;3.72;;;2.63;;
49502;SDS011;35409;48.776;9.204;2023-04-25T10:40:27;4.93;;;3.10;;
49502;SDS011;35409;48.776;9.204;2023-04-25T10:42:53;4.95;;;3.70;;
49502;SDS011;35409;48.776;9.204;2023-04-25T10:45:20;5.80;;;3.78;;
49502;SDS011;35409;48.776;9.204;2023-04-25T10:47:46;4.70;;;3.65;;
49502;SDS011;35409;48.776;9.204;2023-04-25T10:50:12;5.78;;;4.22;;
49502;SDS011;35409;48.776;9.204;2023-04-25T10:52:41;8.73;;;4.60;;
49502;SDS011;35409;48.776;9.204;2023-04-25T10:55:07;5.78;;;3.95;;
49502;SDS011;35409;48.776;9.204;2023-04-25T10:57:36;5.35;;;4.47;;
49502;SDS011;35409;48.776;9.204;2023-04-25T11:00:05;6.88;;;4.90;;
49502;SDS011;35409;48.776;9.204;2023-04-25T11:02:37;6.13;;;4.93;;
49502;SDS011;35409;48.776;9.204;2023-04-25T11:05:07;7.65;;;5.53;;
49502;SDS011;35409;48.776;9.204;2023-04-25T11:07:38;6.97;;;5.18;;
49502;SDS011;35409;48.776;9.204;2023-04-25T11:10:10;4.40;;;2.92;;
49502;SDS011;35409;48.776;9.204;2023-04-25T11:12:36;3.42;;;2.60;;
49502;SDS011;35409;48.776;9.204;2023-04-25T11:15:05;2.88;;;2.58;;
49502;SDS011;35409;48.776;9.204;2023-04-25T11:17:32;3.42;;;2.40;;
49502;SDS011;35409;48.776;9.204;2023-04-25T11:19:58;2.40;;;2.20;;
49502;SDS011;35409;48.776;9.204;2023-04-25T11:22:24;3.08;;;2.35;;
49502;SDS011;35409;48.776;9.204;2023-04-25T11:24:52;2.63;;;2.40;;
49502;SDS011;35409;48.776;9.204;2023-04-25T11:27:18;4.95;;;3.10;;
49502;SDS011;35409;48.776;9.204;2023-04-25T11:29:44;6.00;;;3.28;;
49502;SDS011;35409;48.776;9.204;2023-04-25T11:32:10;5.03;;;3.50;;
49502;SDS011;35409;48.776;9.204;2023-04-25T11:34:35;4.90;;;3.65;;
49502;SDS011;35409;48.776;9.204;2023-04-25T11:37:01;4.30;;;3.42;;
49502;SDS011;35409;48.776;9.204;2023-04-25T11:39:27;4.00;;;3.60;;
49502;SDS011;35409;48.776;9.204;2023-04-25T11:41:53;4.45;;;3.78;;
49502;SDS011;35409;48.776;9.204;2023-04-25T11:44:20;4.07;;;3.20;;
49502;SDS011;35409;48.776;9.204;2023-04-25T11:46:47;3.35;;;2.70;;
49502;SDS011;35409;48.776;9.204;2023-04-25T11:49:13;3.05;;;2.78;;
49502;SDS011;35409;48.776;9.204;2023-04-25T11:51:40;3.30;;;2.97;;
49502;SDS011;35409;48.776;9.204;2023-04-25T11:54:08;6.65;;;3.00;;
49502;SDS011;35409;48.776;9.204;2023-04-25T11:56:34;3.85;;;3.10;;
49502;SDS011;35409;48.776;9.204;2023-04-25T11:59:01;4.72;;;3.67;;
49502;SDS011;35409;48.776;9.204;2023-04-25T12:04:16;5.43;;;3.80;;
49502;SDS011;35409;48.776;9.204;2023-04-25T12:06:49;4.57;;;3.95;;
49502;SDS011;35409;48.776;9.204;2023-04-25T12:09:20;6.85;;;5.20;;
49502;SDS011;35409;48.776;9.204;2023-04-25T12:11:55;7.22;;;5.47;;
49502;SDS011;35409;48.776;9.204;2023-04-25T12:14:31;6.55;;;5.43;;
49502;SDS011;35409;48.776;9.204;2023-04-25T12:17:00;5.85;;;4.75;;
49502;SDS011;35409;48.776;9.204;2023-04-25T12:19:33;8.30;;;5.13;;
49502;SDS011;35409;48.776;9.204;2023-04-25T12:22:01;6.80;;;4.80;;
49502;SDS011;35409;48.776;9.204;2023-04-25T12:24:32;5.80;;;4.50;;
49502;SDS011;35409;48.776;9.204;2023-04-25T12:27:00;5.88;;;5.20;;
49502;SDS011;35409;48.776;9.204;2023-04-25T12:29:28;6.85;;;5.18;;
49502;SDS011;35409;48.776;9.204;2023-04-25T12:31:54;6.93;;;4.75;;
49502;SDS011;35409;48.776;9.204;2023-04-25T12:34:21;6.68;;;4.93;;
49502;SDS011;35409;48.776;9.204;2023-04-25T12:36:47;6.43;;;5.15;;
49502;SDS011;35409;48.776;9.204;2023-04-25T12:39:17;7.28;;;5.65;;
49502;SDS011;35409;48.776;9.204;2023-04-25T12:41:50;7.18;;;5.97;;
49502;SDS011;35409;48.776;9.204;2023-04-25T12:44:18;6.97;;;5.80;;
49502;SDS011;35409;48.776;9.204;2023-04-25T12:46:44;7.30;;;6.15;;
49502;SDS011;35409;48.776;9.204;2023-04-25T12:49:10;9.18;;;6.28;;
49502;SDS011;35409;48.776;9.204;2023-04-25T12:51:36;6.32;;;5.50;;
49502;SDS011;35409;48.776;9.204;2023-04-25T12:54:03;9.77;;;5.65;;
49502;SDS011;35409;48.776;9.204;2023-04-25T12:56:31;9.20;;;6.03;;
49502;SDS011;35409;48.776;9.204;2023-04-25T12:58:57;7.93;;;6.10;;
49502;SDS011;35409;48.776;9.204;2023-04-25T13:01:23;10.43;;;5.28;;
49502;SDS011;35409;48.776;9.204;2023-04-25T13:03:51;9.13;;;5.80;;
49502;SDS011;35409;48.776;9.204;2023-04-25T13:06:18;6.82;;;5.40;;
49502;SDS011;35409;48.776;9.204;2023-04-25T13:08:44;7.15;;;5.38;;
49502;SDS011;35409;48.776;9.204;2023-04-25T13:11:10;9.00;;;5.07;;
49502;SDS011;35409;48.776;9.204;2023-04-25T13:13:36;8.25;;;4.95;;
49502;SDS011;35409;48.776;9.204;2023-04-25T13:16:02;6.88;;;4.57;;
49502;SDS011;35409;48.776;9.204;2023-04-25T13:18:29;6.53;;;4.25;;
49502;SDS011;35409;48.776;9.204;2023-04-25T13:20:56;5.35;;;3.97;;
49502;SDS011;35409;48.776;9.204;2023-04-25T13:23:22;7.55;;;4.47;;
49502;SDS011;35409;48.776;9.204;2023-04-25T13:25:48;5.60;;;4.75;;
49502;SDS011;35409;48.776;9.204;2023-04-25T13:28:14;8.27;;;5.32;;
49502;SDS011;35409;48.776;9.204;2023-04-25T13:30:40;6.57;;;5.75;;
49502;SDS011;35409;48.776;9.204;2023-04-25T13:33:05;8.27;;;6.22;;
49502;SDS011;35409;48.776;9.204;2023-04-25T13:35:31;7.00;;;5.15;;
49502;SDS011;35409;48.776;9.204;2023-04-25T13:37:59;8.13;;;5.70;;
49502;SDS011;35409;48.776;9.204;2023-04-25T13:40:25;9.25;;;5.80;;
49502;SDS011;35409;48.776;9.204;2023-04-25T13:42:52;8.90;;;6.32;;
49502;SDS011;35409;48.776;9.204;2023-04-25T13:45:17;8.82;;;5.43;;
49502;SDS011;35409;48.776;9.204;2023-04-25T13:47:43;9.38;;;5.97;;
49502;SDS011;35409;48.776;9.204;2023-04-25T13:50:09;10.15;;;6.72;;
49502;SDS011;35409;48.776;9.204;2023-04-25T13:52:35;10.18;;;6.35;;
49502;SDS011;35409;48.776;9.204;2023-04-25T13:55:00;9.88;;;6.95;;
49502;SDS011;35409;48.776;9.204;2023-04-25T13:57:28;10.27;;;8.02;;
49502;SDS011;35409;48.776;9.204;2023-04-25T13:59:57;10.48;;;7.25;;
49502;SDS011;35409;48.776;9.204;2023-04-25T14:02:22;12.90;;;8.45;;
49502;SDS011;35409;48.776;9.204;2023-04-25T14:04:48;10.90;;;7.72;;
49502;SDS011;35409;48.776;9.204;2023-04-25T14:07:14;12.18;;;6.95;;
49502;SDS011;35409;48.776;9.204;2023-04-25T14:09:42;10.32;;;8.15;;
49502;SDS011;35409;48.776;9.204;2023-04-25T14:12:08;11.73;;;8.30;;
49502;SDS011;35409;48.776;9.204;2023-04-25T14:14:34;12.70;;;6.95;;
49502;SDS011;35409;48.776;9.204;2023-04-25T14:17:00;11.07;;;7.70;;
49502;SDS011;35409;48.776;9.204;2023-04-25T14:19:25;8.15;;;7.22;;
49502;SDS011;35409;48.776;9.204;2023-04-25T14:21:51;12.23;;;7.60;;
49502;SDS011;35409;48.776;9.204;2023-04-25T14:24:17;11.00;;;6.95;;
49502;SDS011;35409;48.776;9.204;2023-04-25T14:26:43;9.40;;;6.07;;
49502;SDS011;35409;48.776;9.204;2023-04-25T14:29:08;9.48;;;6.22;;
49502;SDS011;35409;48.776;9.204;2023-04-25T14:31:36;8.65;;;5.70;;
49502;SDS011;35409;48.776;9.204;2023-04-25T14:34:05;8.02;;;5.47;;
49502;SDS011;35409;48.776;9.204;2023-04-25T14:36:32;7.25;;;4.95;;
49502;SDS011;35409;48.776;9.204;2023-04-25T14:38:58;6.22;;;4.68;;
49502;SDS011;35409;48.776;9.204;2023-04-25T14:41:24;5.75;;;4.68;;
49502;SDS011;35409;48.776;9.204;2023-04-25T14:43:50;6.72;;;4.78;;
49502;SDS011;35409;48.776;9.204;2023-04-25T14:46:17;5.20;;;4.20;;
49502;SDS011;35409;48.776;9.204;2023-04-25T14:48:43;4.43;;;4.03;;
49502;SDS011;35409;48.776;9.204;2023-04-25T14:51:10;5.07;;;4.10;;
49502;SDS011;35409;48.776;9.204;2023-04-25T14:53:35;5.55;;;3.90;;